Time;durP1;ratioP1;P1;durP2;ratioP2;P2;SDS_P1;SDS_P2;PMS_P1;PMS_P2;Temp;Humidity;BMP_temperature;BMP_pressure;BME280_temperature;BME280_humidity;BME280_pressure;Samples;Min_cycle;Max_cycle;Signal;HPM_P1;HPM_P2
2022/07/06 00:02:31;;;;;;;21.40;18.88;;;;;;;20.82;92.67;97518.16;10383872;28;20032;-55
2022/07/06 00:07:30;;;;;;;22.95;18.83;;;;;;;20.77;93.04;97484.09;10386984;28;20072;-55
2022/07/06 00:12:29;;;;;;;19.42;17.40;;;;;;;20.59;93.59;97451.53;10390631;28;20032;-55
2022/07/06 00:17:28;;;;;;;20.33;16.30;;;;;;;20.40;93.66;97437.47;10384151;28;20526;-55
2022/07/06 00:22:27;;;;;;;17.92;16.02;;;;;;;20.26;92.81;97425.75;10381019;28;20476;-55
2022/07/06 00:27:26;;;;;;;15.73;14.13;;;;;;;20.16;92.05;97429.72;10381307;28;20111;-55
2022/07/06 00:32:26;;;;;;;21.50;14.88;;;;;;;19.80;93.24;97451.50;10388342;28;20037;-55
2022/07/06 00:37:25;;;;;;;17.27;13.05;;;;;;;19.60;92.80;97448.84;10385807;28;20068;-55
2022/07/06 00:42:24;;;;;;;17.38;12.50;;;;;;;19.72;92.12;97434.31;10395723;28;20111;-55
2022/07/06 00:47:23;;;;;;;16.77;14.43;;;;;;;19.78;92.38;97453.34;10393231;28;20111;-55
2022/07/06 00:52:22;;;;;;;14.73;13.13;;;;;;;19.80;90.81;97464.66;10390128;28;20120;-55
2022/07/06 00:57:21;;;;;;;15.77;14.07;;;;;;;19.94;90.75;97479.03;10392727;28;20126;-55
2022/07/06 01:02:22;;;;;;;18.23;15.07;;;;;;;19.99;91.11;97477.03;10389307;28;20064;-55
2022/07/06 01:07:21;;;;;;;17.70;15.77;;;;;;;19.94;92.10;97473.75;10390793;28;20471;-55
2022/07/06 01:12:20;;;;;;;17.95;16.05;;;;;;;19.91;92.87;97473.88;10387346;28;20522;-55
2022/07/06 01:17:20;;;;;;;20.60;17.38;;;;;;;19.85;93.65;97475.84;10393567;28;20071;-55
2022/07/06 01:22:19;;;;;;;19.35;17.27;;;;;;;19.89;93.96;97475.72;10384713;28;20064;-55
2022/07/06 01:27:18;;;;;;;20.27;18.20;;;;;;;19.92;94.32;97473.81;10394548;28;20032;-55
2022/07/06 01:32:17;;;;;;;19.52;17.42;;;;;;;19.94;94.15;97473.75;10393537;28;20028;-55
2022/07/06 01:37:16;;;;;;;22.20;17.88;;;;;;;19.94;94.30;97460.59;10386247;28;20487;-55
2022/07/06 01:42:15;;;;;;;18.58;16.58;;;;;;;19.94;94.07;97463.22;10381463;28;20051;-55
2022/07/06 01:47:14;;;;;;;19.20;17.08;;;;;;;19.97;93.94;97481.50;10381039;28;20103;-55
2022/07/06 01:52:13;;;;;;;19.05;17.15;;;;;;;19.98;94.09;97484.09;10413672;28;20135;-56
2022/07/06 01:57:12;;;;;;;25.73;18.05;;;;;;;20.02;94.00;97497.97;10381557;28;20040;-55
2022/07/06 02:02:11;;;;;;;21.77;17.10;;;;;;;19.98;93.95;97504.31;10393928;28;20104;-55
2022/07/06 02:07:10;;;;;;;21.40;18.48;;;;;;;19.95;94.31;97517.59;10421799;28;20411;-55
2022/07/06 02:12:09;;;;;;;20.83;18.23;;;;;;;19.86;94.43;97517.06;10421313;28;20517;-55
2022/07/06 02:17:08;;;;;;;22.17;18.20;;;;;;;19.89;94.64;97531.03;10421431;28;20028;-55
2022/07/06 02:22:07;;;;;;;21.33;19.10;;;;;;;19.83;94.59;97538.25;10421194;28;20048;-55
2022/07/06 02:27:06;;;;;;;26.42;19.65;;;;;;;19.54;95.85;97567.53;10417178;28;20040;-55
2022/07/06 02:32:05;;;;;;;19.15;17.17;;;;;;;19.14;96.76;97574.34;10417360;28;20380;-55
2022/07/06 02:37:04;;;;;;;20.88;18.52;;;;;;;19.12;96.48;97570.94;10416897;28;20569;-55
2022/07/06 02:42:03;;;;;;;22.73;19.38;;;;;;;19.13;96.95;97577.88;10417333;28;20517;-55
2022/07/06 02:47:02;;;;;;;21.85;19.55;;;;;;;19.12;96.68;97582.28;10416823;28;20066;-55
2022/07/06 02:52:02;;;;;;;22.67;19.02;;;;;;;19.10;96.85;97594.66;10416331;28;20491;-55
2022/07/06 02:57:00;;;;;;;24.10;19.70;;;;;;;18.99;97.26;97595.06;10416191;28;20056;-55
2022/07/06 03:01:59;;;;;;;24.35;19.48;;;;;;;18.99;97.29;97587.19;10416325;28;20040;-55
2022/07/06 03:06:58;;;;;;;24.35;21.70;;;;;;;19.10;97.28;97610.44;10416620;28;20032;-55
2022/07/06 03:11:58;;;;;;;23.75;20.60;;;;;;;19.14;97.07;97600.66;10416026;28;20076;-55
2022/07/06 03:16:57;;;;;;;22.70;20.27;;;;;;;19.21;97.05;97612.66;10415978;28;20528;-55
2022/07/06 03:21:56;;;;;;;24.60;19.98;;;;;;;19.29;97.17;97615.84;10415607;28;20369;-55
2022/07/06 03:26:55;;;;;;;23.45;20.95;;;;;;;19.38;97.28;97620.75;10415882;28;20047;-55
2022/07/06 03:31:54;;;;;;;26.58;21.70;;;;;;;19.50;97.31;97622.06;10415376;28;20056;-55
2022/07/06 03:36:54;;;;;;;28.35;23.35;;;;;;;19.64;97.49;97625.03;10378270;28;20049;-55
2022/07/06 03:41:53;;;;;;;24.88;22.27;;;;;;;19.77;97.31;97630.69;10372863;28;20040;-55
2022/07/06 03:46:55;;;;;;;23.83;21.08;;;;;;;19.84;97.32;97631.28;10373632;28;20070;-55
2022/07/06 03:51:54;;;;;;;20.10;17.98;;;;;;;19.96;97.04;97625.53;10374099;28;20064;-55
2022/07/06 03:56:53;;;;;;;22.30;18.73;;;;;;;20.07;96.74;97619.78;10405305;28;20063;-55
2022/07/06 04:01:52;;;;;;;20.02;17.92;;;;;;;20.19;96.53;97614.03;10402439;28;20048;-55
2022/07/06 04:06:51;;;;;;;21.10;18.40;;;;;;;20.34;96.14;97606.41;10373426;28;20057;-55
2022/07/06 04:11:50;;;;;;;20.80;17.65;;;;;;;20.48;95.53;97609.31;10382339;28;20036;-55
2022/07/06 04:16:49;;;;;;;18.75;16.75;;;;;;;20.54;93.80;97614.34;10382000;28;20029;-55
2022/07/06 04:21:48;;;;;;;19.55;16.35;;;;;;;20.31;93.64;97617.06;10381210;28;20036;-55
2022/07/06 04:26:47;;;;;;;24.88;17.50;;;;;;;20.36;93.46;97609.81;10380934;28;20108;-55
2022/07/06 04:31:46;;;;;;;18.75;16.75;;;;;;;20.38;93.44;97615.91;10380858;28;20535;-55
2022/07/06 04:36:45;;;;;;;21.33;17.25;;;;;;;20.29;93.11;97628.53;10400284;28;20075;-55
2022/07/06 04:41:44;;;;;;;18.58;15.77;;;;;;;20.27;93.03;97627.72;10388986;28;20112;-55
2022/07/06 04:46:43;;;;;;;25.90;16.50;;;;;;;20.10;93.74;97624.94;10394233;28;20043;-55
2022/07/06 04:51:42;;;;;;;17.98;15.77;;;;;;;19.98;93.85;97626.31;10399772;28;20163;-55
2022/07/06 04:56:41;;;;;;;18.55;16.42;;;;;;;19.87;94.30;97623.25;10397233;28;20037;-56
2022/07/06 05:01:40;;;;;;;21.58;16.92;;;;;;;19.78;94.88;97642.06;10388684;28;20491;-55
2022/07/06 05:06:40;;;;;;;20.48;17.25;;;;;;;19.62;95.48;97645.28;10397569;28;20072;-55
2022/07/06 05:11:39;;;;;;;23.15;16.48;;;;;;;19.81;95.49;97649.81;10402188;28;20083;-55
2022/07/06 05:16:38;;;;;;;30.50;16.77;;;;;;;19.86;94.58;97640.84;10397468;28;20059;-55
2022/07/06 05:21:37;;;;;;;18.92;14.60;;;;;;;20.01;93.94;97646.41;10402473;28;20112;-55
2022/07/06 05:26:36;;;;;;;15.48;13.85;;;;;;;19.99;94.23;97642.97;10400735;28;20040;-55
2022/07/06 05:31:35;;;;;;;17.65;12.85;;;;;;;20.00;94.39;97640.28;10397858;28;20584;-55
2022/07/06 05:36:34;;;;;;;15.40;12.93;;;;;;;20.10;93.74;97651.31;10394162;28;20476;-56
2022/07/06 05:41:33;;;;;;;15.95;13.32;;;;;;;20.35;93.67;97656.38;10389435;28;20048;-56
2022/07/06 05:46:32;;;;;;;14.93;12.73;;;;;;;20.75;92.92;97656.50;10398324;28;20458;-56
2022/07/06 05:51:31;;;;;;;17.65;12.55;;;;;;;20.94;90.37;97660.06;10402236;28;20029;-56
2022/07/06 05:56:30;;;;;;;16.95;12.93;;;;;;;21.29;90.62;97657.66;10402433;28;20064;-56
2022/07/06 06:01:29;;;;;;;17.08;11.80;;;;;;;21.63;89.06;97656.06;10381727;28;20104;-57
2022/07/06 06:06:31;;;;;;;13.75;12.35;;;;;;;21.80;87.84;97647.34;10383700;28;20036;-55
2022/07/06 06:11:30;;;;;;;15.40;12.55;;;;;;;21.76;86.43;97644.84;10396335;28;20155;-55
2022/07/06 06:16:29;;;;;;;17.15;13.63;;;;;;;21.80;86.76;97645.53;10379971;28;20020;-56
2022/07/06 06:21:27;;;;;;;14.70;12.38;;;;;;;21.79;85.64;97643.00;10390836;28;20400;-55
2022/07/06 06:26:26;;;;;;;15.70;12.13;;;;;;;21.85;84.85;97637.41;10379099;28;20031;-57
2022/07/06 06:31:25;;;;;;;17.95;12.95;;;;;;;22.07;83.90;97632.81;10379204;28;20052;-56
2022/07/06 06:36:24;;;;;;;16.70;12.88;;;;;;;22.14;84.08;97628.09;10390033;28;20407;-57
2022/07/06 06:41:24;;;;;;;15.75;11.30;;;;;;;22.28;82.77;97630.88;10401973;28;20475;-56
2022/07/06 06:46:22;;;;;;;15.02;12.40;;;;;;;22.50;82.76;97629.78;10398006;28;20092;-56
2022/07/06 06:51:21;;;;;;;17.23;12.52;;;;;;;22.64;80.42;97629.94;10389887;28;20027;-56
2022/07/06 06:56:20;;;;;;;18.92;13.75;;;;;;;22.47;78.76;97620.22;10385272;28;20055;-55
2022/07/06 07:01:19;;;;;;;14.10;12.38;;;;;;;22.69;78.18;97625.25;10392986;28;20020;-56
2022/07/06 07:06:18;;;;;;;15.57;12.40;;;;;;;22.87;75.80;97618.19;10396849;28;20027;-56
2022/07/06 07:11:17;;;;;;;14.43;11.15;;;;;;;23.23;76.23;97619.78;10381141;28;20032;-55
2022/07/06 07:16:16;;;;;;;12.82;10.35;;;;;;;23.22;67.75;97621.59;10404125;28;20056;-55
2022/07/06 07:21:15;;;;;;;13.13;10.13;;;;;;;23.51;67.08;97623.59;10398532;28;20025;-55
2022/07/06 07:26:14;;;;;;;14.10;10.23;;;;;;;23.84;66.12;97628.78;10374970;28;20024;-56
2022/07/06 07:31:13;;;;;;;10.85;9.57;;;;;;;24.28;65.20;97622.75;10379057;28;20041;-55
2022/07/06 07:36:12;;;;;;;12.10;10.23;;;;;;;24.57;64.46;97628.16;10394593;28;20047;-56
2022/07/06 07:41:13;;;;;;;12.80;10.85;;;;;;;25.20;64.72;97624.31;10374193;28;20079;-56
2022/07/06 07:46:12;;;;;;;11.43;9.15;;;;;;;25.13;58.25;97617.69;10396825;28;20068;-55
2022/07/06 07:51:11;;;;;;;10.82;9.52;;;;;;;25.17;57.15;97628.03;10378439;28;20077;-55
2022/07/06 07:56:11;;;;;;;10.65;9.07;;;;;;;25.12;57.48;97616.84;10394177;28;20032;-55
2022/07/06 08:01:10;;;;;;;14.15;9.00;;;;;;;24.84;59.67;97629.13;10414602;28;20173;-55
2022/07/06 08:06:09;;;;;;;13.93;8.80;;;;;;;24.61;63.65;97619.06;10414806;28;20056;-55
2022/07/06 08:11:09;;;;;;;10.80;8.50;;;;;;;24.48;64.36;97617.13;10414627;28;20072;-55
2022/07/06 08:16:09;;;;;;;10.02;8.13;;;;;;;24.51;63.35;97620.56;10415127;28;20083;-55
2022/07/06 08:21:08;;;;;;;12.73;8.63;;;;;;;24.72;63.49;97634.34;10414046;28;20059;-56
2022/07/06 08:26:07;;;;;;;10.18;8.55;;;;;;;24.65;63.42;97625.88;10413650;28;20033;-55
2022/07/06 08:31:06;;;;;;;10.65;7.68;;;;;;;24.59;64.49;97626.25;10413926;28;20404;-55
2022/07/06 08:36:06;;;;;;;10.88;7.60;;;;;;;24.80;62.34;97640.03;10402688;28;20575;-55
2022/07/06 08:41:06;;;;;;;9.20;7.85;;;;;;;25.15;60.31;97627.25;10393983;28;20111;-55
2022/07/06 08:46:07;;;;;;;10.98;8.13;;;;;;;25.35;59.40;97617.22;10412606;28;20067;-55
2022/07/06 08:51:06;;;;;;;11.32;7.25;;;;;;;25.52;57.60;97619.66;10413413;28;20060;-55
2022/07/06 08:56:05;;;;;;;9.38;6.45;;;;;;;25.38;55.07;97622.31;10418479;28;20056;-55
2022/07/06 09:01:04;;;;;;;8.32;6.43;;;;;;;25.74;53.78;97617.34;10420926;28;20024;-55
2022/07/06 09:06:05;;;;;;;7.43;6.05;;;;;;;25.63;53.75;97619.00;10420645;28;20486;-55
2022/07/06 09:11:04;;;;;;;8.48;6.70;;;;;;;25.75;55.51;97623.50;10420760;28;20064;-55
2022/07/06 09:16:12;;;;;;;7.32;6.45;;;;;;;25.92;55.54;97612.63;10419507;28;20024;-55
2022/07/06 09:21:11;;;;;;;7.80;6.75;;;;;;;25.46;55.99;97614.75;10414533;28;20061;-55
2022/07/06 09:26:11;;;;;;;10.60;7.20;;;;;;;24.93;56.10;97626.91;10421943;28;20504;-55
2022/07/06 09:31:10;;;;;;;8.95;7.22;;;;;;;24.67;57.92;97621.34;10412323;28;20119;-55
2022/07/06 09:36:09;;;;;;;10.65;8.45;;;;;;;24.54;58.95;97626.53;10381225;28;20029;-57
2022/07/06 09:41:08;;;;;;;10.13;8.50;;;;;;;24.49;58.88;97618.84;10402631;28;20159;-57
2022/07/06 09:46:08;;;;;;;11.27;7.90;;;;;;;24.44;59.64;97615.59;10392231;28;20044;-56
2022/07/06 09:51:07;;;;;;;13.68;7.93;;;;;;;24.40;59.06;97613.22;10422596;28;20040;-57
2022/07/06 09:56:06;;;;;;;9.20;8.10;;;;;;;24.46;58.63;97613.72;10408840;28;20048;-57
2022/07/06 10:01:05;;;;;;;10.90;7.00;;;;;;;24.55;57.25;97612.31;10422070;28;20051;-56
2022/07/06 10:06:05;;;;;;;11.07;7.78;;;;;;;24.53;58.20;97618.69;10421308;28;20012;-56
2022/07/06 10:11:06;;;;;;;9.68;7.88;;;;;;;24.74;58.29;97617.38;10420121;28;20098;-56
2022/07/06 10:16:05;;;;;;;10.10;7.43;;;;;;;24.49;58.84;97613.53;10421721;28;20079;-56
2022/07/06 10:21:04;;;;;;;12.35;8.40;;;;;;;24.11;61.38;97617.56;10410348;28;20508;-56
2022/07/06 10:26:04;;;;;;;10.73;9.38;;;;;;;23.55;65.38;97620.69;10376776;28;20071;-56
2022/07/06 10:31:04;;;;;;;11.85;9.82;;;;;;;23.39;67.90;97618.00;10401556;28;20511;-57
2022/07/06 10:36:04;;;;;;;12.15;10.13;;;;;;;22.94;67.69;97624.84;10417411;28;20546;-56
2022/07/06 10:41:09;;;;;;;13.38;10.10;;;;;;;23.06;69.83;97628.66;10414565;28;20067;-57
2022/07/06 10:46:11;;;;;;;14.95;11.52;;;;;;;22.66;74.02;97637.81;10417288;28;20064;-56
2022/07/06 10:51:32;;;;;;;15.65;12.13;;;;;;;22.33;78.42;97639.44;10417141;28;20091;-56
2022/07/06 10:56:44;;;;;;;13.02;11.43;;;;;;;22.18;79.78;97651.66;10398148;28;20079;-56
2022/07/06 11:02:15;;;;;;;16.42;11.68;;;;;;;22.50;80.99;97633.28;10410589;28;20056;-56
2022/07/06 11:07:18;;;;;;;14.98;12.50;;;;;;;22.76;81.78;97634.66;10399715;28;20086;-56
2022/07/06 11:12:18;;;;;;;11.23;9.25;;;;;;;23.28;80.63;97628.34;10400446;28;20065;-57
2022/07/06 11:17:18;;;;;;;14.02;10.77;;;;;;;23.94;78.57;97626.50;10401536;28;20083;-56
2022/07/06 11:22:20;;;;;;;13.18;9.65;;;;;;;24.63;78.42;97619.81;10402946;28;20830;-56
2022/07/06 11:27:22;;;;;;;12.38;8.90;;;;;;;25.28;74.93;97619.41;10395119;28;20059;-57
2022/07/06 11:32:26;;;;;;;10.85;9.00;;;;;;;25.95;71.94;97611.59;10391907;28;20055;-57
2022/07/06 11:37:25;;;;;;;12.57;9.30;;;;;;;26.36;67.31;97615.97;10391022;28;20068;-57
2022/07/06 11:42:24;;;;;;;11.20;9.40;;;;;;;26.75;63.39;97604.44;10392230;28;20112;-57
2022/07/06 11:47:30;;;;;;;13.70;10.60;;;;;;;27.10;61.84;97592.31;10400884;28;20174;-57
2022/07/06 11:52:30;;;;;;;12.98;10.60;;;;;;;27.67;59.19;97589.09;10381988;28;20057;-57
2022/07/06 11:57:32;;;;;;;11.70;9.77;;;;;;;28.26;56.77;97580.28;10399990;28;20670;-56
2022/07/06 12:02:31;;;;;;;11.40;10.20;;;;;;;28.80;53.64;97576.19;10405121;28;20067;-56
2022/07/06 12:07:30;;;;;;;13.45;11.35;;;;;;;29.04;49.08;97566.25;10394761;28;20021;-56
2022/07/06 12:12:29;;;;;;;13.00;11.15;;;;;;;29.40;50.13;97564.28;10391539;28;20519;-56
2022/07/06 12:17:28;;;;;;;13.95;10.70;;;;;;;29.27;45.00;97555.53;10386417;28;20032;-57
2022/07/06 12:22:27;;;;;;;13.65;10.70;;;;;;;28.94;45.25;97553.72;10384890;28;20068;-56
2022/07/06 12:27:26;;;;;;;13.40;11.65;;;;;;;28.02;46.76;97550.94;10388573;28;20039;-55
2022/07/06 12:32:27;;;;;;;14.20;11.95;;;;;;;27.75;47.29;97546.72;10393430;28;20075;-55
2022/07/06 12:37:26;;;;;;;12.30;10.85;;;;;;;27.71;49.18;97534.56;10392463;28;20902;-56
2022/07/06 12:42:25;;;;;;;12.85;11.32;;;;;;;27.39;48.59;97548.41;10393248;28;20067;-56
2022/07/06 12:47:24;;;;;;;12.32;11.02;;;;;;;26.86;49.06;97534.50;10395013;28;20063;-57
2022/07/06 12:52:28;;;;;;;11.90;10.70;;;;;;;26.68;48.83;97535.75;10393154;28;20083;-57
2022/07/06 12:57:27;;;;;;;15.82;13.70;;;;;;;26.72;49.34;97529.22;10392411;28;20072;-56
2022/07/06 13:02:30;;;;;;;14.23;12.70;;;;;;;26.73;50.42;97517.66;10389721;28;20092;-56
2022/07/06 13:07:35;;;;;;;14.75;13.15;;;;;;;26.58;51.91;97519.56;10387968;28;20053;-56
2022/07/06 13:12:34;;;;;;;14.13;11.48;;;;;;;26.65;50.49;97509.34;10391669;28;20068;-57
2022/07/06 13:17:34;;;;;;;13.80;11.95;;;;;;;26.56;51.06;97489.56;10393271;28;20166;-57
2022/07/06 13:22:33;;;;;;;14.45;12.13;;;;;;;26.51;51.78;97508.50;10386717;28;20064;-57
2022/07/06 13:27:32;;;;;;;13.98;12.30;;;;;;;25.98;52.55;97520.13;10389630;28;20472;-57
2022/07/06 13:32:32;;;;;;;18.77;14.27;;;;;;;25.15;57.74;97533.47;10390362;28;20476;-57
2022/07/06 13:37:33;;;;;;;22.60;17.65;;;;;;;23.35;68.58;97545.00;10385184;28;20080;-56
2022/07/06 13:42:31;;;;;;;28.17;22.25;;;;;;;21.50;81.19;97548.41;10389722;28;20064;-57
2022/07/06 13:47:30;;;;;;;35.15;26.40;;;;;;;20.97;85.12;97550.91;10386156;28;20112;-57
2022/07/06 13:52:29;;;;;;;35.63;27.10;;;;;;;20.95;89.23;97545.69;10393618;28;20525;-57
2022/07/06 13:57:28;;;;;;;27.00;19.65;;;;;;;21.07;91.46;97553.03;10385820;28;20033;-57
2022/07/06 14:02:28;;;;;;;27.25;20.15;;;;;;;21.40;93.71;97541.84;10391279;28;20161;-57
2022/07/06 14:07:27;;;;;;;26.40;19.83;;;;;;;21.76;93.42;97544.47;10387812;28;20067;-57
2022/07/06 14:12:26;;;;;;;23.05;19.05;;;;;;;22.13;93.41;97549.72;10389259;28;20485;-57
2022/07/06 14:17:26;;;;;;;25.45;20.95;;;;;;;22.41;93.97;97554.44;10386917;28;20594;-56
2022/07/06 14:22:25;;;;;;;26.33;21.35;;;;;;;22.68;93.96;97552.13;10391380;28;20053;-58
2022/07/06 14:27:24;;;;;;;26.40;21.88;;;;;;;22.96;94.81;97558.63;10390827;28;20039;-58
2022/07/06 14:32:23;;;;;;;26.70;21.85;;;;;;;23.25;94.27;97553.53;10389852;28;20037;-58
2022/07/06 14:37:21;;;;;;;23.33;20.02;;;;;;;23.72;92.39;97534.97;10386692;28;20041;-60
2022/07/06 14:42:20;;;;;;;25.48;20.77;;;;;;;24.37;87.75;97533.84;10388401;28;20020;-59
2022/07/06 14:47:19;;;;;;;23.38;20.58;;;;;;;24.95;84.82;97518.84;10395930;28;20025;-58
2022/07/06 14:52:18;;;;;;;21.40;18.23;;;;;;;25.46;81.99;97513.78;10388826;28;20045;-58
2022/07/06 14:57:17;;;;;;;20.00;17.83;;;;;;;25.74;78.16;97511.03;10386242;28;20056;-57
2022/07/06 15:02:17;;;;;;;20.67;18.45;;;;;;;25.81;76.12;97505.28;10394028;28;20028;-57
2022/07/06 15:07:16;;;;;;;22.63;18.10;;;;;;;25.94;73.98;97503.53;10383367;28;20087;-57
2022/07/06 15:12:15;;;;;;;22.58;18.70;;;;;;;25.95;72.55;97506.09;10384607;28;20061;-58
2022/07/06 15:17:14;;;;;;;20.92;18.55;;;;;;;25.98;72.74;97498.88;10384198;28;20079;-57
2022/07/06 15:22:13;;;;;;;23.33;19.20;;;;;;;26.35;71.92;97499.88;10380832;28;20065;-55
2022/07/06 15:27:12;;;;;;;21.60;18.92;;;;;;;26.45;71.60;97487.63;10373681;28;20035;-55
2022/07/06 15:32:11;;;;;;;19.90;17.85;;;;;;;26.66;69.55;97485.28;10374116;28;20092;-55
2022/07/06 15:37:10;;;;;;;20.75;18.65;;;;;;;26.83;66.60;97492.09;10391068;28;20056;-55
2022/07/06 15:42:09;;;;;;;18.52;16.58;;;;;;;26.76;63.92;97486.31;10389933;28;20068;-56
2022/07/06 15:47:08;;;;;;;21.80;18.10;;;;;;;26.73;62.64;97488.38;10382946;28;20060;-56
2022/07/06 15:52:07;;;;;;;21.10;18.90;;;;;;;26.69;63.72;97492.19;10380139;28;20491;-56
2022/07/06 15:57:06;;;;;;;19.55;17.35;;;;;;;26.76;63.46;97498.78;10392356;28;20561;-56
2022/07/06 16:02:05;;;;;;;19.40;17.50;;;;;;;26.76;61.74;97502.28;10386851;28;20067;-56
2022/07/06 16:07:04;;;;;;;20.90;18.52;;;;;;;26.65;62.75;97506.66;10380400;28;20075;-56
2022/07/06 16:12:04;;;;;;;19.38;17.33;;;;;;;26.60;61.40;97495.50;10381278;28;20043;-56
2022/07/06 16:17:03;;;;;;;20.48;18.38;;;;;;;26.64;61.08;97494.34;10380945;28;20068;-56
2022/07/06 16:22:02;;;;;;;19.25;17.27;;;;;;;26.47;61.18;97485.72;10380523;28;20474;-56
2022/07/06 16:27:01;;;;;;;20.38;18.27;;;;;;;26.39;61.46;97498.69;10379511;28;20057;-56
2022/07/06 16:32:00;;;;;;;21.35;19.13;;;;;;;26.30;63.84;97508.19;10382324;28;20067;-56
2022/07/06 16:36:59;;;;;;;21.70;19.48;;;;;;;26.26;65.68;97516.47;10392589;28;21032;-56
2022/07/06 16:41:58;;;;;;;21.50;19.30;;;;;;;26.19;64.98;97515.16;10391833;28;20035;-56
2022/07/06 16:46:57;;;;;;;21.83;19.58;;;;;;;26.14;64.75;97511.00;10391000;28;20029;-56
2022/07/06 16:51:56;;;;;;;20.90;18.80;;;;;;;26.00;64.79;97511.09;10392014;28;20115;-56
2022/07/06 16:56:55;;;;;;;26.05;20.08;;;;;;;25.77;66.02;97511.78;10385280;28;20024;-56
2022/07/06 17:01:55;;;;;;;22.48;20.08;;;;;;;25.37;66.53;97493.13;10380919;28;20059;-56
2022/07/06 17:06:54;;;;;;;23.08;20.65;;;;;;;25.26;65.76;97517.72;10398405;28;20056;-56
2022/07/06 17:11:53;;;;;;;25.23;21.35;;;;;;;25.17;66.85;97516.50;10380098;28;20107;-56
2022/07/06 17:16:54;;;;;;;23.67;20.95;;;;;;;25.14;68.75;97523.81;10378028;28;20500;-56
2022/07/06 17:21:53;;;;;;;25.25;21.25;;;;;;;25.13;70.14;97512.34;10378954;28;20088;-56
2022/07/06 17:26:52;;;;;;;25.98;22.17;;;;;;;24.97;71.41;97523.09;10377196;28;20052;-56
2022/07/06 17:31:51;;;;;;;24.95;21.90;;;;;;;24.78;71.11;97520.72;10377436;28;20033;-56
2022/07/06 17:36:50;;;;;;;23.52;20.20;;;;;;;24.56;70.69;97523.81;10386127;28;20450;-56
2022/07/06 17:41:49;;;;;;;22.52;20.05;;;;;;;24.25;71.76;97532.78;10376837;28;20508;-56
2022/07/06 17:46:48;;;;;;;24.27;20.98;;;;;;;23.96;72.72;97527.41;10378182;28;20033;-55
2022/07/06 17:51:47;;;;;;;22.98;20.23;;;;;;;23.70;73.16;97536.00;10376898;28;20025;-55
2022/07/06 17:56:46;;;;;;;22.48;20.17;;;;;;;23.36;74.19;97537.91;10377015;28;20065;-56
2022/07/06 18:01:45;;;;;;;23.05;20.25;;;;;;;22.95;75.94;97541.03;10376350;28;20032;-55
2022/07/06 18:06:44;;;;;;;22.58;20.27;;;;;;;22.63;77.06;97540.09;10374560;28;20037;-55
2022/07/06 18:11:43;;;;;;;22.95;20.45;;;;;;;22.34;78.04;97537.19;10376064;28;20040;-55
2022/07/06 18:16:42;;;;;;;26.38;21.33;;;;;;;22.14;79.15;97549.66;10392626;28;20021;-56
2022/07/06 18:21:44;;;;;;;26.25;22.35;;;;;;;21.90;79.66;97550.88;10375132;28;20021;-55
2022/07/06 18:26:44;;;;;;;23.95;21.33;;;;;;;21.69;80.29;97558.06;10375408;28;20052;-56
2022/07/06 18:31:43;;;;;;;24.23;21.63;;;;;;;21.52;80.85;97556.22;10377616;28;20065;-57
2022/07/06 18:36:42;;;;;;;25.83;23.05;;;;;;;21.38;81.33;97561.31;10377506;28;20155;-56
2022/07/06 18:41:41;;;;;;;29.02;23.25;;;;;;;21.24;82.08;97572.53;10375473;28;20064;-56
2022/07/06 18:46:40;;;;;;;30.08;24.08;;;;;;;21.14;82.49;97583.47;10385715;28;20040;-56
2022/07/06 18:51:41;;;;;;;29.05;23.98;;;;;;;21.00;83.32;97593.81;10375322;28;20120;-56
2022/07/06 18:56:40;;;;;;;30.23;23.08;;;;;;;20.78;84.10;97595.72;10374865;28;20095;-56
2022/07/06 19:01:39;;;;;;;28.35;23.42;;;;;;;20.65;84.66;97606.78;10373896;28;20067;-56
2022/07/06 19:06:38;;;;;;;25.05;21.95;;;;;;;20.55;84.83;97605.50;10382502;28;20025;-56
2022/07/06 19:11:39;;;;;;;25.77;22.02;;;;;;;20.38;85.22;97602.72;10375002;28;20037;-56
2022/07/06 19:16:38;;;;;;;23.50;21.10;;;;;;;20.19;85.44;97598.22;10389329;28;20112;-56
2022/07/06 19:21:37;;;;;;;22.63;20.27;;;;;;;20.17;85.49;97594.78;10372680;28;20083;-56
2022/07/06 19:26:37;;;;;;;25.33;21.02;;;;;;;20.13;85.43;97606.38;10389760;28;20029;-56
2022/07/06 19:31:37;;;;;;;28.85;21.48;;;;;;;19.99;85.66;97606.94;10373182;28;20068;-57
2022/07/06 19:36:41;;;;;;;24.10;21.58;;;;;;;19.94;85.50;97606.28;10373204;28;20095;-57
2022/07/06 19:41:40;;;;;;;24.17;21.58;;;;;;;19.89;85.44;97599.50;10372804;28;20475;-56
2022/07/06 19:46:39;;;;;;;25.73;21.63;;;;;;;19.85;85.55;97594.34;10373814;28;20468;-56
2022/07/06 19:51:38;;;;;;;31.65;25.08;;;;;;;19.82;85.77;97599.75;10392573;28;20076;-56
2022/07/06 19:56:37;;;;;;;26.58;23.77;;;;;;;19.78;86.04;97597.28;10371855;28;20041;-56
2022/07/06 20:01:37;;;;;;;25.85;23.05;;;;;;;19.73;86.33;97605.38;10374175;28;20068;-56
2022/07/06 20:06:36;;;;;;;26.00;23.15;;;;;;;19.65;86.40;97603.06;10378265;28;20506;-57
2022/07/06 20:11:35;;;;;;;26.20;22.58;;;;;;;19.61;86.50;97605.88;10390147;28;20511;-56
2022/07/06 20:16:34;;;;;;;28.45;22.73;;;;;;;19.57;86.29;97599.88;10373151;28;20464;-56
2022/07/06 20:21:33;;;;;;;28.33;21.70;;;;;;;19.49;86.42;97591.41;10380844;28;20462;-56
2022/07/06 20:26:32;;;;;;;27.23;22.45;;;;;;;19.37;86.57;97578.69;10391488;28;20112;-56
2022/07/06 20:31:31;;;;;;;26.35;22.42;;;;;;;19.23;86.84;97574.00;10378894;28;20060;-56
2022/07/06 20:36:30;;;;;;;27.77;23.48;;;;;;;19.28;87.15;97597.50;10380621;28;20032;-57
2022/07/06 20:41:29;;;;;;;27.00;23.83;;;;;;;19.21;87.53;97597.72;10380527;28;20449;-56
2022/07/06 20:46:28;;;;;;;25.83;22.90;;;;;;;19.16;87.52;97604.09;10387526;28;20511;-56
2022/07/06 20:51:27;;;;;;;26.98;23.00;;;;;;;19.09;87.93;97600.84;10385332;28;20052;-56
2022/07/06 20:56:26;;;;;;;27.58;23.55;;;;;;;19.03;88.26;97601.91;10389274;28;20079;-56
2022/07/06 21:01:25;;;;;;;28.02;24.38;;;;;;;18.96;88.54;97608.31;10390802;28;20080;-56
2022/07/06 21:06:24;;;;;;;30.38;25.02;;;;;;;18.90;89.01;97613.81;10395970;28;20020;-57
2022/07/06 21:11:23;;;;;;;28.75;25.10;;;;;;;18.80;89.35;97615.91;10384950;28;20843;-56
2022/07/06 21:16:22;;;;;;;34.75;25.95;;;;;;;18.75;89.70;97611.72;10390660;28;20048;-56
2022/07/06 21:21:21;;;;;;;29.98;25.17;;;;;;;18.72;89.87;97606.59;10388809;28;20117;-56
2022/07/06 21:26:20;;;;;;;29.70;23.35;;;;;;;18.68;89.99;97612.84;10384544;28;20491;-56
2022/07/06 21:31:19;;;;;;;28.95;24.52;;;;;;;18.63;90.14;97614.78;10393971;28;20517;-56
2022/07/06 21:36:18;;;;;;;31.95;25.42;;;;;;;18.56;90.20;97609.72;10384177;28;20032;-57
2022/07/06 21:41:18;;;;;;;28.92;24.10;;;;;;;18.51;90.35;97611.66;10392063;28;20059;-57
2022/07/06 21:46:18;;;;;;;30.20;24.85;;;;;;;18.47;90.29;97610.03;10388494;28;20052;-56
2022/07/06 21:51:17;;;;;;;34.05;25.20;;;;;;;18.42;91.09;97611.97;10390154;28;20080;-56
2022/07/06 21:56:16;;;;;;;31.17;24.27;;;;;;;18.43;91.34;97597.06;10386764;28;20041;-56
2022/07/06 22:01:16;;;;;;;28.35;24.23;;;;;;;18.44;91.36;97604.91;10383992;28;20040;-56
2022/07/06 22:06:15;;;;;;;31.92;23.73;;;;;;;18.40;91.63;97603.28;10390177;28;20075;-56
2022/07/06 22:11:13;;;;;;;31.15;25.02;;;;;;;18.40;91.94;97604.13;10386000;28;20044;-56
2022/07/06 22:16:15;;;;;;;34.95;25.55;;;;;;;18.38;91.74;97613.00;10387816;28;20036;-58
2022/07/06 22:21:15;;;;;;;29.27;23.02;;;;;;;18.38;91.96;97613.00;10385930;28;20526;-56
2022/07/06 22:26:15;;;;;;;31.65;25.10;;;;;;;18.36;92.27;97607.81;10382014;28;20060;-56
2022/07/06 22:31:14;;;;;;;28.85;25.10;;;;;;;18.30;92.78;97601.91;10380400;28;20076;-56
2022/07/06 22:36:21;;;;;;;37.20;27.77;;;;;;;18.26;93.25;97610.78;10392478;28;20517;-56
2022/07/06 22:41:21;;;;;;;38.85;27.73;;;;;;;18.28;93.71;97611.59;10389033;28;20475;-56
2022/07/06 22:46:20;;;;;;;34.75;25.52;;;;;;;18.19;94.00;97610.13;10382900;28;20087;-56